sensor_id;sensor_type;location;lat;lon;timestamp;temperature;humidity
42421;DHT22;28063;48.140;11.588;2023-04-07T00:01:25;5.30;64.60
42421;DHT22;28063;48.140;11.588;2023-04-07T00:03:51;5.20;65.40
42421;DHT22;28063;48.140;11.588;2023-04-07T00:06:17;5.20;65.00
42421;DHT22;28063;48.140;11.588;2023-04-07T00:08:42;5.20;65.20
42421;DHT22;28063;48.140;11.588;2023-04-07T00:11:08;5.20;65.30
42421;DHT22;28063;48.140;11.588;2023-04-07T00:13:34;5.20;65.50
42421;DHT22;28063;48.140;11.588;2023-04-07T00:15:59;5.20;65.50
42421;DHT22;28063;48.140;11.588;2023-04-07T00:18:25;5.20;65.60
42421;DHT22;28063;48.140;11.588;2023-04-07T00:20:51;5.20;65.60
42421;DHT22;28063;48.140;11.588;2023-04-07T00:23:17;5.30;65.60
42421;DHT22;28063;48.140;11.588;2023-04-07T00:25:42;5.40;65.50
42421;DHT22;28063;48.140;11.588;2023-04-07T00:28:08;5.50;66.10
42421;DHT22;28063;48.140;11.588;2023-04-07T00:30:34;5.50;65.40
42421;DHT22;28063;48.140;11.588;2023-04-07T00:32:59;5.60;65.20
42421;DHT22;28063;48.140;11.588;2023-04-07T00:35:25;5.60;65.20
42421;DHT22;28063;48.140;11.588;2023-04-07T00:37:51;5.60;65.10
42421;DHT22;28063;48.140;11.588;2023-04-07T00:40:16;5.60;65.20
42421;DHT22;28063;48.140;11.588;2023-04-07T00:42:42;5.60;65.30
42421;DHT22;28063;48.140;11.588;2023-04-07T00:45:08;5.60;65.50
42421;DHT22;28063;48.140;11.588;2023-04-07T00:47:35;5.60;65.50
42421;DHT22;28063;48.140;11.588;2023-04-07T00:50:03;5.60;65.70
42421;DHT22;28063;48.140;11.588;2023-04-07T00:52:28;5.60;65.90
42421;DHT22;28063;48.140;11.588;2023-04-07T00:54:55;5.60;65.90
42421;DHT22;28063;48.140;11.588;2023-04-07T00:57:21;5.50;66.00
42421;DHT22;28063;48.140;11.588;2023-04-07T00:59:51;5.60;66.20
42421;DHT22;28063;48.140;11.588;2023-04-07T01:08:05;5.50;66.40
42421;DHT22;28063;48.140;11.588;2023-04-07T01:10:50;5.60;66.50
42421;DHT22;28063;48.140;11.588;2023-04-07T01:13:41;5.60;66.50
42421;DHT22;28063;48.140;11.588;2023-04-07T01:17:01;5.60;66.40
42421;DHT22;28063;48.140;11.588;2023-04-07T01:21:52;5.60;66.30
42421;DHT22;28063;48.140;11.588;2023-04-07T01:30:12;5.60;66.40
42421;DHT22;28063;48.140;11.588;2023-04-07T01:32:42;5.60;66.40
42421;DHT22;28063;48.140;11.588;2023-04-07T01:35:12;5.60;66.50
42421;DHT22;28063;48.140;11.588;2023-04-07T01:37:38;5.60;66.70
42421;DHT22;28063;48.140;11.588;2023-04-07T01:40:04;5.60;66.80
42421;DHT22;28063;48.140;11.588;2023-04-07T01:42:32;5.60;66.90
42421;DHT22;28063;48.140;11.588;2023-04-07T01:45:00;5.60;67.10
42421;DHT22;28063;48.140;11.588;2023-04-07T01:47:27;5.60;67.30
42421;DHT22;28063;48.140;11.588;2023-04-07T01:49:57;5.60;67.40
42421;DHT22;28063;48.140;11.588;2023-04-07T01:52:25;5.60;67.70
42421;DHT22;28063;48.140;11.588;2023-04-07T01:54:52;5.50;67.80
42421;DHT22;28063;48.140;11.588;2023-04-07T01:57:19;5.50;68.10
42421;DHT22;28063;48.140;11.588;2023-04-07T01:59:45;5.60;68.50
42421;DHT22;28063;48.140;11.588;2023-04-07T02:02:11;5.50;68.60
42421;DHT22;28063;48.140;11.588;2023-04-07T02:04:48;5.60;68.90
42421;DHT22;28063;48.140;11.588;2023-04-07T02:07:21;5.50;69.10
42421;DHT22;28063;48.140;11.588;2023-04-07T02:09:50;5.50;69.40
42421;DHT22;28063;48.140;11.588;2023-04-07T02:12:21;5.50;69.60
42421;DHT22;28063;48.140;11.588;2023-04-07T02:14:48;5.60;69.90
42421;DHT22;28063;48.140;11.588;2023-04-07T02:17:14;5.60;70.20
42421;DHT22;28063;48.140;11.588;2023-04-07T02:19:41;5.60;70.40
42421;DHT22;28063;48.140;11.588;2023-04-07T02:22:08;5.60;70.60
42421;DHT22;28063;48.140;11.588;2023-04-07T02:24:34;5.70;70.90
42421;DHT22;28063;48.140;11.588;2023-04-07T02:27:00;5.70;71.20
42421;DHT22;28063;48.140;11.588;2023-04-07T02:29:26;5.70;71.40
42421;DHT22;28063;48.140;11.588;2023-04-07T02:31:52;5.70;71.60
42421;DHT22;28063;48.140;11.588;2023-04-07T02:34:17;5.80;72.00
42421;DHT22;28063;48.140;11.588;2023-04-07T02:36:43;5.80;72.10
42421;DHT22;28063;48.140;11.588;2023-04-07T02:39:09;5.90;72.40
42421;DHT22;28063;48.140;11.588;2023-04-07T02:41:35;5.80;72.60
42421;DHT22;28063;48.140;11.588;2023-04-07T02:44:00;5.90;73.00
42421;DHT22;28063;48.140;11.588;2023-04-07T02:46:26;5.90;73.40
42421;DHT22;28063;48.140;11.588;2023-04-07T02:48:51;5.90;73.60
42421;DHT22;28063;48.140;11.588;2023-04-07T02:51:17;6.00;73.90
42421;DHT22;28063;48.140;11.588;2023-04-07T02:53:43;6.00;74.20
42421;DHT22;28063;48.140;11.588;2023-04-07T02:56:08;6.00;74.50
42421;DHT22;28063;48.140;11.588;2023-04-07T02:58:34;6.00;75.10
42421;DHT22;28063;48.140;11.588;2023-04-07T03:01:00;6.00;75.50
42421;DHT22;28063;48.140;11.588;2023-04-07T03:03:25;6.10;76.10
42421;DHT22;28063;48.140;11.588;2023-04-07T03:05:51;6.00;76.50
42421;DHT22;28063;48.140;11.588;2023-04-07T03:08:17;6.00;76.90
42421;DHT22;28063;48.140;11.588;2023-04-07T03:10:42;6.10;77.30
42421;DHT22;28063;48.140;11.588;2023-04-07T03:13:08;6.10;77.70
42421;DHT22;28063;48.140;11.588;2023-04-07T03:15:34;6.00;78.00
42421;DHT22;28063;48.140;11.588;2023-04-07T03:18:03;6.00;78.50
42421;DHT22;28063;48.140;11.588;2023-04-07T03:20:28;6.00;78.80
42421;DHT22;28063;48.140;11.588;2023-04-07T03:22:54;6.00;79.20
42421;DHT22;28063;48.140;11.588;2023-04-07T03:25:19;6.00;79.50
42421;DHT22;28063;48.140;11.588;2023-04-07T03:27:45;6.00;80.50
42421;DHT22;28063;48.140;11.588;2023-04-07T03:30:11;6.00;80.50
42421;DHT22;28063;48.140;11.588;2023-04-07T03:32:37;5.90;80.80
42421;DHT22;28063;48.140;11.588;2023-04-07T03:35:06;5.90;81.40
42421;DHT22;28063;48.140;11.588;2023-04-07T03:37:31;5.90;81.80
42421;DHT22;28063;48.140;11.588;2023-04-07T03:39:57;5.90;82.40
42421;DHT22;28063;48.140;11.588;2023-04-07T03:42:22;5.90;82.90
42421;DHT22;28063;48.140;11.588;2023-04-07T03:44:48;5.80;83.60
42421;DHT22;28063;48.140;11.588;2023-04-07T03:47:14;5.80;84.10
42421;DHT22;28063;48.140;11.588;2023-04-07T03:49:39;5.80;84.60
42421;DHT22;28063;48.140;11.588;2023-04-07T03:52:05;5.70;85.20
42421;DHT22;28063;48.140;11.588;2023-04-07T03:54:31;5.70;85.60
42421;DHT22;28063;48.140;11.588;2023-04-07T03:56:57;5.70;86.10
42421;DHT22;28063;48.140;11.588;2023-04-07T03:59:22;5.70;86.50
42421;DHT22;28063;48.140;11.588;2023-04-07T04:01:48;5.70;86.90
42421;DHT22;28063;48.140;11.588;2023-04-07T04:04:14;5.70;87.30
42421;DHT22;28063;48.140;11.588;2023-04-07T04:06:40;5.70;87.70
42421;DHT22;28063;48.140;11.588;2023-04-07T04:09:05;5.70;88.10
42421;DHT22;28063;48.140;11.588;2023-04-07T04:11:31;5.80;88.60
42421;DHT22;28063;48.140;11.588;2023-04-07T04:13:57;5.80;88.80
42421;DHT22;28063;48.140;11.588;2023-04-07T04:16:23;5.80;89.00
42421;DHT22;28063;48.140;11.588;2023-04-07T04:18:48;5.70;89.30
42421;DHT22;28063;48.140;11.588;2023-04-07T04:21:14;5.70;89.50
42421;DHT22;28063;48.140;11.588;2023-04-07T04:23:40;5.70;90.00
42421;DHT22;28063;48.140;11.588;2023-04-07T04:26:05;5.60;90.10
42421;DHT22;28063;48.140;11.588;2023-04-07T04:28:31;5.60;90.30
42421;DHT22;28063;48.140;11.588;2023-04-07T04:30:57;5.60;90.40
42421;DHT22;28063;48.140;11.588;2023-04-07T04:33:22;5.60;90.50
42421;DHT22;28063;48.140;11.588;2023-04-07T04:35:48;5.60;90.60
42421;DHT22;28063;48.140;11.588;2023-04-07T04:38:14;5.60;90.80
42421;DHT22;28063;48.140;11.588;2023-04-07T04:40:41;5.60;90.80
42421;DHT22;28063;48.140;11.588;2023-04-07T04:43:06;5.60;90.90
42421;DHT22;28063;48.140;11.588;2023-04-07T04:45:33;5.60;90.90
42421;DHT22;28063;48.140;11.588;2023-04-07T04:48:00;5.60;90.90
42421;DHT22;28063;48.140;11.588;2023-04-07T04:50:25;5.60;90.80
42421;DHT22;28063;48.140;11.588;2023-04-07T04:52:51;5.60;90.80
42421;DHT22;28063;48.140;11.588;2023-04-07T04:55:17;5.60;90.80
42421;DHT22;28063;48.140;11.588;2023-04-07T04:57:43;5.60;90.90
42421;DHT22;28063;48.140;11.588;2023-04-07T05:00:09;5.50;90.80
42421;DHT22;28063;48.140;11.588;2023-04-07T05:02:36;5.50;90.90
42421;DHT22;28063;48.140;11.588;2023-04-07T05:05:01;5.60;91.00
42421;DHT22;28063;48.140;11.588;2023-04-07T05:07:28;5.60;91.00
42421;DHT22;28063;48.140;11.588;2023-04-07T05:09:53;5.70;91.00
42421;DHT22;28063;48.140;11.588;2023-04-07T05:12:20;5.70;90.90
42421;DHT22;28063;48.140;11.588;2023-04-07T05:14:46;5.60;90.90
42421;DHT22;28063;48.140;11.588;2023-04-07T05:17:11;5.70;91.00
42421;DHT22;28063;48.140;11.588;2023-04-07T05:19:37;5.70;91.00
42421;DHT22;28063;48.140;11.588;2023-04-07T05:22:03;5.70;91.10
42421;DHT22;28063;48.140;11.588;2023-04-07T05:24:29;5.70;91.10
42421;DHT22;28063;48.140;11.588;2023-04-07T05:26:54;5.80;91.20
42421;DHT22;28063;48.140;11.588;2023-04-07T05:29:21;5.80;91.20
42421;DHT22;28063;48.140;11.588;2023-04-07T05:31:47;5.70;91.30
42421;DHT22;28063;48.140;11.588;2023-04-07T05:34:13;5.70;91.40
42421;DHT22;28063;48.140;11.588;2023-04-07T05:36:38;5.70;91.50
42421;DHT22;28063;48.140;11.588;2023-04-07T05:39:05;5.70;91.70
42421;DHT22;28063;48.140;11.588;2023-04-07T05:41:30;5.70;91.90
42421;DHT22;28063;48.140;11.588;2023-04-07T05:43:56;5.70;92.00
42421;DHT22;28063;48.140;11.588;2023-04-07T05:46:21;5.70;92.20
42421;DHT22;28063;48.140;11.588;2023-04-07T05:48:47;5.70;92.20
42421;DHT22;28063;48.140;11.588;2023-04-07T05:51:13;5.70;92.30
42421;DHT22;28063;48.140;11.588;2023-04-07T05:53:39;5.70;92.30
42421;DHT22;28063;48.140;11.588;2023-04-07T05:56:05;5.80;92.40
42421;DHT22;28063;48.140;11.588;2023-04-07T05:58:31;5.90;92.50
42421;DHT22;28063;48.140;11.588;2023-04-07T06:00:57;6.00;92.40
42421;DHT22;28063;48.140;11.588;2023-04-07T06:03:22;6.10;92.40
42421;DHT22;28063;48.140;11.588;2023-04-07T06:05:49;6.20;92.10
42421;DHT22;28063;48.140;11.588;2023-04-07T06:08:14;6.30;92.00
42421;DHT22;28063;48.140;11.588;2023-04-07T06:10:40;6.40;91.80
42421;DHT22;28063;48.140;11.588;2023-04-07T06:13:06;6.50;91.70
42421;DHT22;28063;48.140;11.588;2023-04-07T06:15:32;6.50;91.40
42421;DHT22;28063;48.140;11.588;2023-04-07T06:17:58;6.50;91.40
42421;DHT22;28063;48.140;11.588;2023-04-07T06:20:23;6.50;90.90
42421;DHT22;28063;48.140;11.588;2023-04-07T06:22:49;6.50;90.80
42421;DHT22;28063;48.140;11.588;2023-04-07T06:25:15;6.40;90.90
42421;DHT22;28063;48.140;11.588;2023-04-07T06:27:41;6.50;90.90
42421;DHT22;28063;48.140;11.588;2023-04-07T06:30:07;6.60;90.80
42421;DHT22;28063;48.140;11.588;2023-04-07T06:32:33;6.60;90.90
42421;DHT22;28063;48.140;11.588;2023-04-07T06:34:59;6.70;90.60
42421;DHT22;28063;48.140;11.588;2023-04-07T06:37:25;6.70;90.50
42421;DHT22;28063;48.140;11.588;2023-04-07T06:39:51;6.80;90.40
42421;DHT22;28063;48.140;11.588;2023-04-07T06:42:16;6.90;90.30
42421;DHT22;28063;48.140;11.588;2023-04-07T06:44:42;7.00;89.80
42421;DHT22;28063;48.140;11.588;2023-04-07T06:47:08;7.10;90.00
42421;DHT22;28063;48.140;11.588;2023-04-07T06:49:34;7.20;89.40
42421;DHT22;28063;48.140;11.588;2023-04-07T06:52:03;7.30;89.00
42421;DHT22;28063;48.140;11.588;2023-04-07T06:54:29;7.50;88.80
42421;DHT22;28063;48.140;11.588;2023-04-07T06:56:55;7.60;87.80
42421;DHT22;28063;48.140;11.588;2023-04-07T06:59:21;7.60;86.70
42421;DHT22;28063;48.140;11.588;2023-04-07T07:01:47;7.70;86.50
42421;DHT22;28063;48.140;11.588;2023-04-07T07:04:13;7.60;86.30
42421;DHT22;28063;48.140;11.588;2023-04-07T07:06:39;7.70;86.60
42421;DHT22;28063;48.140;11.588;2023-04-07T07:09:04;7.80;86.40
42421;DHT22;28063;48.140;11.588;2023-04-07T07:11:30;8.00;86.30
42421;DHT22;28063;48.140;11.588;2023-04-07T07:13:56;8.20;85.30
42421;DHT22;28063;48.140;11.588;2023-04-07T07:16:21;8.30;84.90
42421;DHT22;28063;48.140;11.588;2023-04-07T07:18:50;8.50;84.10
42421;DHT22;28063;48.140;11.588;2023-04-07T07:21:17;8.70;83.30
42421;DHT22;28063;48.140;11.588;2023-04-07T07:23:43;8.80;82.40
42421;DHT22;28063;48.140;11.588;2023-04-07T07:26:09;8.90;81.50
42421;DHT22;28063;48.140;11.588;2023-04-07T07:28:45;9.00;81.50
42421;DHT22;28063;48.140;11.588;2023-04-07T07:31:12;9.10;80.60
42421;DHT22;28063;48.140;11.588;2023-04-07T07:33:39;9.20;80.10
42421;DHT22;28063;48.140;11.588;2023-04-07T07:36:06;9.20;79.70
42421;DHT22;28063;48.140;11.588;2023-04-07T07:38:32;9.30;79.50
42421;DHT22;28063;48.140;11.588;2023-04-07T07:40:58;9.40;79.10
42421;DHT22;28063;48.140;11.588;2023-04-07T07:43:23;9.60;78.70
42421;DHT22;28063;48.140;11.588;2023-04-07T07:45:49;9.80;77.80
42421;DHT22;28063;48.140;11.588;2023-04-07T07:48:15;10.00;76.80
42421;DHT22;28063;48.140;11.588;2023-04-07T07:50:41;10.10;76.60
42421;DHT22;28063;48.140;11.588;2023-04-07T07:53:09;10.30;75.80
42421;DHT22;28063;48.140;11.588;2023-04-07T07:55:35;10.50;75.30
42421;DHT22;28063;48.140;11.588;2023-04-07T07:58:02;10.60;74.00
42421;DHT22;28063;48.140;11.588;2023-04-07T08:00:28;10.50;73.30
42421;DHT22;28063;48.140;11.588;2023-04-07T08:02:54;10.30;73.10
42421;DHT22;28063;48.140;11.588;2023-04-07T08:05:20;10.20;74.00
42421;DHT22;28063;48.140;11.588;2023-04-07T08:07:46;10.10;74.30
42421;DHT22;28063;48.140;11.588;2023-04-07T08:10:12;10.00;74.30
42421;DHT22;28063;48.140;11.588;2023-04-07T08:12:38;9.80;74.50
42421;DHT22;28063;48.140;11.588;2023-04-07T08:15:04;9.70;74.60
42421;DHT22;28063;48.140;11.588;2023-04-07T08:17:32;9.60;75.10
42421;DHT22;28063;48.140;11.588;2023-04-07T08:19:57;9.50;75.40
42421;DHT22;28063;48.140;11.588;2023-04-07T08:22:23;9.60;75.40
42421;DHT22;28063;48.140;11.588;2023-04-07T08:24:49;9.70;75.40
42421;DHT22;28063;48.140;11.588;2023-04-07T08:27:14;9.70;74.90
42421;DHT22;28063;48.140;11.588;2023-04-07T08:29:40;9.80;75.00
42421;DHT22;28063;48.140;11.588;2023-04-07T08:32:06;9.90;74.70
42421;DHT22;28063;48.140;11.588;2023-04-07T08:34:31;10.00;74.40
42421;DHT22;28063;48.140;11.588;2023-04-07T08:36:57;10.20;73.80
42421;DHT22;28063;48.140;11.588;2023-04-07T08:39:22;10.40;73.60
42421;DHT22;28063;48.140;11.588;2023-04-07T08:41:50;10.70;72.80
42421;DHT22;28063;48.140;11.588;2023-04-07T08:44:16;10.90;71.90
42421;DHT22;28063;48.140;11.588;2023-04-07T08:46:42;11.10;70.90
42421;DHT22;28063;48.140;11.588;2023-04-07T08:49:10;11.00;70.00
42421;DHT22;28063;48.140;11.588;2023-04-07T08:51:46;11.00;69.80
42421;DHT22;28063;48.140;11.588;2023-04-07T08:54:14;11.20;69.80
42421;DHT22;28063;48.140;11.588;2023-04-07T08:56:41;11.30;69.00
42421;DHT22;28063;48.140;11.588;2023-04-07T08:59:09;11.10;68.40
42421;DHT22;28063;48.140;11.588;2023-04-07T09:01:36;10.90;68.90
42421;DHT22;28063;48.140;11.588;2023-04-07T09:04:03;11.00;70.20
42421;DHT22;28063;48.140;11.588;2023-04-07T09:06:30;11.30;70.00
42421;DHT22;28063;48.140;11.588;2023-04-07T09:08:57;11.40;68.70
42421;DHT22;28063;48.140;11.588;2023-04-07T09:11:23;11.50;68.20
42421;DHT22;28063;48.140;11.588;2023-04-07T09:13:49;11.70;67.30
42421;DHT22;28063;48.140;11.588;2023-04-07T09:16:15;11.60;66.50
42421;DHT22;28063;48.140;11.588;2023-04-07T09:18:41;11.70;66.90
42421;DHT22;28063;48.140;11.588;2023-04-07T09:21:07;12.10;66.60
42421;DHT22;28063;48.140;11.588;2023-04-07T09:23:38;12.30;64.90
42421;DHT22;28063;48.140;11.588;2023-04-07T09:26:24;12.40;64.80
42421;DHT22;28063;48.140;11.588;2023-04-07T09:28:54;12.50;63.70
42421;DHT22;28063;48.140;11.588;2023-04-07T09:31:42;12.70;63.50
42421;DHT22;28063;48.140;11.588;2023-04-07T09:34:26;12.90;62.30
42421;DHT22;28063;48.140;11.588;2023-04-07T09:36:53;12.80;61.30
42421;DHT22;28063;48.140;11.588;2023-04-07T09:39:18;12.60;60.80
42421;DHT22;28063;48.140;11.588;2023-04-07T09:41:44;12.60;61.50
42421;DHT22;28063;48.140;11.588;2023-04-07T09:44:10;12.80;60.80
42421;DHT22;28063;48.140;11.588;2023-04-07T09:46:54;12.90;60.70
42421;DHT22;28063;48.140;11.588;2023-04-07T09:49:21;13.30;60.60
42421;DHT22;28063;48.140;11.588;2023-04-07T09:51:57;13.70;59.70
42421;DHT22;28063;48.140;11.588;2023-04-07T09:54:34;13.90;59.30
42421;DHT22;28063;48.140;11.588;2023-04-07T09:57:05;14.40;58.50
42421;DHT22;28063;48.140;11.588;2023-04-07T09:59:33;14.40;57.00
42421;DHT22;28063;48.140;11.588;2023-04-07T10:02:00;14.20;56.20
42421;DHT22;28063;48.140;11.588;2023-04-07T10:04:26;13.70;56.20
42421;DHT22;28063;48.140;11.588;2023-04-07T10:06:52;13.20;57.50
42421;DHT22;28063;48.140;11.588;2023-04-07T10:09:19;12.90;58.10
42421;DHT22;28063;48.140;11.588;2023-04-07T10:11:47;12.70;58.90
42421;DHT22;28063;48.140;11.588;2023-04-07T10:14:15;12.60;59.10
42421;DHT22;28063;48.140;11.588;2023-04-07T10:16:41;12.70;58.40
42421;DHT22;28063;48.140;11.588;2023-04-07T10:19:08;12.60;58.30
42421;DHT22;28063;48.140;11.588;2023-04-07T10:21:36;12.60;58.70
42421;DHT22;28063;48.140;11.588;2023-04-07T10:26:46;13.00;59.10
42421;DHT22;28063;48.140;11.588;2023-04-07T10:29:14;13.20;58.40
42421;DHT22;28063;48.140;11.588;2023-04-07T10:31:40;13.40;58.30
42421;DHT22;28063;48.140;11.588;2023-04-07T10:34:05;13.60;58.00
42421;DHT22;28063;48.140;11.588;2023-04-07T10:36:31;13.90;57.50
42421;DHT22;28063;48.140;11.588;2023-04-07T10:41:39;14.90;55.40
42421;DHT22;28063;48.140;11.588;2023-04-07T10:44:07;15.30;54.40
42421;DHT22;28063;48.140;11.588;2023-04-07T10:49:14;15.90;53.30
42421;DHT22;28063;48.140;11.588;2023-04-07T10:52:20;15.80;52.10
42421;DHT22;28063;48.140;11.588;2023-04-07T10:54:46;15.00;51.90
42421;DHT22;28063;48.140;11.588;2023-04-07T10:57:16;14.00;54.20
42421;DHT22;28063;48.140;11.588;2023-04-07T11:02:36;12.40;57.60
42421;DHT22;28063;48.140;11.588;2023-04-07T11:05:02;12.00;58.90
42421;DHT22;28063;48.140;11.588;2023-04-07T11:08:04;11.70;59.90
42421;DHT22;28063;48.140;11.588;2023-04-07T11:10:31;11.50;61.10
42421;DHT22;28063;48.140;11.588;2023-04-07T11:13:02;11.60;61.70
42421;DHT22;28063;48.140;11.588;2023-04-07T11:15:28;11.80;61.40
42421;DHT22;28063;48.140;11.588;2023-04-07T11:18:13;12.20;61.40
42421;DHT22;28063;48.140;11.588;2023-04-07T11:23:09;14.10;59.80
42421;DHT22;28063;48.140;11.588;2023-04-07T11:25:35;14.90;56.60
42421;DHT22;28063;48.140;11.588;2023-04-07T11:28:03;15.00;55.10
42421;DHT22;28063;48.140;11.588;2023-04-07T11:30:29;14.70;54.80
42421;DHT22;28063;48.140;11.588;2023-04-07T11:32:55;14.50;55.00
42421;DHT22;28063;48.140;11.588;2023-04-07T11:35:22;14.30;55.30
42421;DHT22;28063;48.140;11.588;2023-04-07T11:37:48;14.20;55.30
42421;DHT22;28063;48.140;11.588;2023-04-07T11:40:30;14.10;55.40
42421;DHT22;28063;48.140;11.588;2023-04-07T11:42:58;14.20;55.60
42421;DHT22;28063;48.140;11.588;2023-04-07T11:45:24;14.30;55.50
42421;DHT22;28063;48.140;11.588;2023-04-07T11:47:50;14.90;55.40
42421;DHT22;28063;48.140;11.588;2023-04-07T11:50:16;15.50;54.00
42421;DHT22;28063;48.140;11.588;2023-04-07T11:52:46;15.80;52.70
42421;DHT22;28063;48.140;11.588;2023-04-07T11:55:22;16.00;52.30
42421;DHT22;28063;48.140;11.588;2023-04-07T11:57:51;16.40;52.10
42421;DHT22;28063;48.140;11.588;2023-04-07T12:00:17;16.80;51.10
42421;DHT22;28063;48.140;11.588;2023-04-07T12:02:43;17.00;50.50
42421;DHT22;28063;48.140;11.588;2023-04-07T12:05:09;17.30;49.80
42421;DHT22;28063;48.140;11.588;2023-04-07T12:07:38;17.40;49.10
42421;DHT22;28063;48.140;11.588;2023-04-07T12:10:25;17.00;48.10
42421;DHT22;28063;48.140;11.588;2023-04-07T12:12:51;16.60;49.20
42421;DHT22;28063;48.140;11.588;2023-04-07T12:15:17;16.50;49.60
42421;DHT22;28063;48.140;11.588;2023-04-07T12:17:44;16.40;50.30
42421;DHT22;28063;48.140;11.588;2023-04-07T12:20:12;16.60;49.90
42421;DHT22;28063;48.140;11.588;2023-04-07T12:22:38;16.70;49.40
42421;DHT22;28063;48.140;11.588;2023-04-07T12:25:04;16.80;49.50
42421;DHT22;28063;48.140;11.588;2023-04-07T12:27:29;16.50;49.30
42421;DHT22;28063;48.140;11.588;2023-04-07T12:29:56;15.90;50.00
42421;DHT22;28063;48.140;11.588;2023-04-07T12:32:21;15.10;51.60
42421;DHT22;28063;48.140;11.588;2023-04-07T12:34:47;14.80;53.10
42421;DHT22;28063;48.140;11.588;2023-04-07T12:37:12;14.50;53.60
42421;DHT22;28063;48.140;11.588;2023-04-07T12:39:38;14.20;54.10
42421;DHT22;28063;48.140;11.588;2023-04-07T12:42:04;14.00;54.90
42421;DHT22;28063;48.140;11.588;2023-04-07T12:44:30;13.90;55.30
42421;DHT22;28063;48.140;11.588;2023-04-07T12:46:56;13.80;55.40
42421;DHT22;28063;48.140;11.588;2023-04-07T12:49:21;13.70;55.50
42421;DHT22;28063;48.140;11.588;2023-04-07T12:51:48;13.70;55.90
42421;DHT22;28063;48.140;11.588;2023-04-07T12:54:13;13.50;56.10
42421;DHT22;28063;48.140;11.588;2023-04-07T12:56:39;13.40;56.70
42421;DHT22;28063;48.140;11.588;2023-04-07T12:59:06;13.30;57.20
42421;DHT22;28063;48.140;11.588;2023-04-07T13:01:32;13.30;57.40
42421;DHT22;28063;48.140;11.588;2023-04-07T13:03:59;13.10;57.50
42421;DHT22;28063;48.140;11.588;2023-04-07T13:06:26;13.10;58.40
42421;DHT22;28063;48.140;11.588;2023-04-07T13:08:52;13.10;58.70
42421;DHT22;28063;48.140;11.588;2023-04-07T13:11:17;13.20;58.30
42421;DHT22;28063;48.140;11.588;2023-04-07T13:13:43;13.20;58.20
42421;DHT22;28063;48.140;11.588;2023-04-07T13:16:09;13.30;57.80
42421;DHT22;28063;48.140;11.588;2023-04-07T13:18:35;13.30;57.50
42421;DHT22;28063;48.140;11.588;2023-04-07T13:21:01;13.20;57.60
42421;DHT22;28063;48.140;11.588;2023-04-07T13:23:27;13.00;57.60
42421;DHT22;28063;48.140;11.588;2023-04-07T13:25:52;12.80;57.80
42421;DHT22;28063;48.140;11.588;2023-04-07T13:28:18;12.60;58.30
42421;DHT22;28063;48.140;11.588;2023-04-07T13:30:46;12.40;59.00
42421;DHT22;28063;48.140;11.588;2023-04-07T13:33:11;12.30;59.60
42421;DHT22;28063;48.140;11.588;2023-04-07T13:35:37;12.30;59.70
42421;DHT22;28063;48.140;11.588;2023-04-07T13:38:03;12.30;59.90
42421;DHT22;28063;48.140;11.588;2023-04-07T13:40:29;12.20;60.50
42421;DHT22;28063;48.140;11.588;2023-04-07T13:42:55;12.20;60.20
42421;DHT22;28063;48.140;11.588;2023-04-07T13:45:31;12.30;60.20
42421;DHT22;28063;48.140;11.588;2023-04-07T13:47:57;12.40;59.80
42421;DHT22;28063;48.140;11.588;2023-04-07T13:50:23;12.50;59.80
42421;DHT22;28063;48.140;11.588;2023-04-07T13:52:49;12.60;59.60
42421;DHT22;28063;48.140;11.588;2023-04-07T13:55:14;12.80;59.70
42421;DHT22;28063;48.140;11.588;2023-04-07T13:57:44;12.90;59.20
42421;DHT22;28063;48.140;11.588;2023-04-07T14:00:11;12.90;59.20
42421;DHT22;28063;48.140;11.588;2023-04-07T14:02:42;13.10;58.80
42421;DHT22;28063;48.140;11.588;2023-04-07T14:05:10;13.30;58.30
42421;DHT22;28063;48.140;11.588;2023-04-07T14:07:35;13.30;57.80
42421;DHT22;28063;48.140;11.588;2023-04-07T14:10:01;13.30;58.00
42421;DHT22;28063;48.140;11.588;2023-04-07T14:12:27;13.20;57.30
42421;DHT22;28063;48.140;11.588;2023-04-07T14:14:53;13.00;57.60
42421;DHT22;28063;48.140;11.588;2023-04-07T14:17:19;13.10;58.00
42421;DHT22;28063;48.140;11.588;2023-04-07T14:19:45;13.10;57.60
42421;DHT22;28063;48.140;11.588;2023-04-07T14:22:13;13.20;57.80
42421;DHT22;28063;48.140;11.588;2023-04-07T14:24:38;13.20;57.60
42421;DHT22;28063;48.140;11.588;2023-04-07T14:27:04;13.20;58.00
42421;DHT22;28063;48.140;11.588;2023-04-07T14:29:30;13.20;58.10
42421;DHT22;28063;48.140;11.588;2023-04-07T14:31:56;13.10;58.00
42421;DHT22;28063;48.140;11.588;2023-04-07T14:34:21;12.90;58.40
42421;DHT22;28063;48.140;11.588;2023-04-07T14:36:54;12.80;58.80
42421;DHT22;28063;48.140;11.588;2023-04-07T14:39:21;12.80;59.10
42421;DHT22;28063;48.140;11.588;2023-04-07T14:41:47;12.80;59.00
42421;DHT22;28063;48.140;11.588;2023-04-07T14:44:13;12.80;59.10
42421;DHT22;28063;48.140;11.588;2023-04-07T14:46:39;12.70;59.00
42421;DHT22;28063;48.140;11.588;2023-04-07T14:49:07;12.60;59.50
42421;DHT22;28063;48.140;11.588;2023-04-07T14:51:32;12.60;60.60
42421;DHT22;28063;48.140;11.588;2023-04-07T14:53:59;12.60;59.90
42421;DHT22;28063;48.140;11.588;2023-04-07T14:56:24;12.70;59.90
42421;DHT22;28063;48.140;11.588;2023-04-07T14:58:50;12.70;59.60
42421;DHT22;28063;48.140;11.588;2023-04-07T15:01:17;12.70;58.60
42421;DHT22;28063;48.140;11.588;2023-04-07T15:03:43;12.60;59.10
42421;DHT22;28063;48.140;11.588;2023-04-07T15:06:13;12.40;59.40
42421;DHT22;28063;48.140;11.588;2023-04-07T15:08:39;12.30;59.60
42421;DHT22;28063;48.140;11.588;2023-04-07T15:11:08;12.20;59.90
42421;DHT22;28063;48.140;11.588;2023-04-07T15:13:34;12.20;60.10
42421;DHT22;28063;48.140;11.588;2023-04-07T15:16:14;12.30;59.90
42421;DHT22;28063;48.140;11.588;2023-04-07T15:18:41;12.30;60.00
42421;DHT22;28063;48.140;11.588;2023-04-07T15:21:08;12.30;60.00
42421;DHT22;28063;48.140;11.588;2023-04-07T15:23:38;12.30;60.10
42421;DHT22;28063;48.140;11.588;2023-04-07T15:26:05;12.30;60.00
42421;DHT22;28063;48.140;11.588;2023-04-07T15:28:31;12.30;60.60
42421;DHT22;28063;48.140;11.588;2023-04-07T15:30:57;12.30;61.80
42421;DHT22;28063;48.140;11.588;2023-04-07T15:33:23;12.20;61.60
42421;DHT22;28063;48.140;11.588;2023-04-07T15:35:49;12.10;62.00
42421;DHT22;28063;48.140;11.588;2023-04-07T15:38:15;12.10;62.40
42421;DHT22;28063;48.140;11.588;2023-04-07T15:40:41;11.90;62.80
42421;DHT22;28063;48.140;11.588;2023-04-07T15:43:06;11.80;63.30
42421;DHT22;28063;48.140;11.588;2023-04-07T15:45:38;11.80;63.50
42421;DHT22;28063;48.140;11.588;2023-04-07T15:48:04;11.70;63.50
42421;DHT22;28063;48.140;11.588;2023-04-07T15:50:30;11.70;63.80